| Date | Time | Temp. (oF) | Dew Point (oF) | Rel. Hum. (%) | Press. (in.) | Wind Dir. | Wind Speed (mph) | Hourly Rainfall (in.) |
|
|---|---|---|---|---|---|---|---|---|---|
| 1 | 10/18 | 00:00 | 48 | 47 | 98 | 29.92 | NW | 0 | 0.00 |
| 2 | 10/17 | 23:00 | 51 | 47 | 89 | 29.91 | NW | 0 | 0.00 |
| 3 | 10/17 | 22:00 | 54 | 46 | 75 | 29.89 | WNW | 0 | 0.00 |
| 4 | 10/17 | 21:00 | 56 | 45 | 68 | 29.86 | W | 0 | 0.00 |
| 5 | 10/17 | 20:00 | 61 | 43 | 52 | 29.85 | WNW | 0 | 0.00 |
| 6 | 10/17 | 19:00 | 65 | 43 | 45 | 29.82 | WNW | 0 | 0.00 |
| 7 | 10/17 | 18:00 | 69 | 42 | 39 | 29.80 | WNW | 0 | 0.00 |
| 8 | 10/17 | 17:00 | 73 | 45 | 38 | 29.79 | NNW | 0 | 0.00 |
| 9 | 10/17 | 16:00 | 73 | 47 | 41 | 29.79 | WNW | 0 | 0.00 |
| 10 | 10/17 | 15:00 | 72 | 47 | 42 | 29.81 | W | 0 | 0.00 |
| 11 | 10/17 | 14:00 | 72 | 46 | 41 | 29.84 | SW | 0 | 0.00 |
| 12 | 10/17 | 13:00 | 71 | 47 | 44 | 29.87 | NW | 0 | 0.00 |
| 13 | 10/17 | 12:00 | 68 | 46 | 47 | 29.89 | WSW | 0 | 0.00 |
| 14 | 10/17 | 11:00 | 64 | 45 | 51 | 29.93 | SW | 0 | 0.00 |
| 15 | 10/17 | 10:00 | 60 | 46 | 62 | 29.95 | W | 0 | 0.00 |
| 16 | 10/17 | 09:00 | 49 | 44 | 85 | 29.97 | W | 0 | 0.00 |
| 17 | 10/17 | 08:00 | 40 | 39 | 97 | 29.97 | WNW | 0 | 0.00 |
| 18 | 10/17 | 07:00 | 40 | 39 | 98 | 29.97 | WNW | 0 | 0.00 |
| 19 | 10/17 | 06:00 | 40 | 40 | 100 | 29.97 | WNW | 0 | 0.00 |
| 20 | 10/17 | 05:00 | 40 | 40 | 100 | 29.98 | WNW | 0 | 0.00 |
| 21 | 10/17 | 04:00 | 40 | 40 | 100 | 29.98 | WNW | 0 | 0.00 |
| 22 | 10/17 | 03:00 | 41 | 41 | 100 | 30.00 | WNW | 0 | 0.00 |
| 23 | 10/17 | 02:00 | 42 | 40 | 94 | 30.00 | WNW | 0 | 0.00 |
| 24 | 10/17 | 01:00 | 45 | 39 | 82 | 29.99 | WNW | 0 | 0.00 |